Time;durP1;ratioP1;P1;durP2;ratioP2;P2;SDS_P1;SDS_P2;PMS_P1;PMS_P2;Temp;Humidity;BMP_temperature;BMP_pressure;BME280_temperature;BME280_humidity;BME280_pressure;Samples;Min_cycle;Max_cycle;Signal;HPM_P1;HPM_P2
2021/07/01 00:00:29;0.00;0.00;0.62;0.00;0.00;0.62;5.57;5.07;;;24.80;39.70;;;;;;2249488;61;20445;-72
2021/07/01 00:02:56;0.00;0.00;0.62;0.00;0.00;0.62;5.60;5.10;;;24.80;39.70;;;;;;2249680;61;20384;-72
2021/07/01 00:05:22;0.00;0.00;0.62;0.00;0.00;0.62;5.53;4.90;;;24.70;39.60;;;;;;2248750;61;20369;-73
2021/07/01 00:07:50;0.00;0.00;0.62;0.00;0.00;0.62;4.90;4.40;;;24.70;39.60;;;;;;2250244;61;20350;-75
2021/07/01 00:10:22;0.00;0.00;0.62;0.00;0.00;0.62;9.63;5.20;;;24.70;39.60;;;;;;2250305;61;20366;-74
2021/07/01 00:12:48;0.00;0.00;0.62;0.00;0.00;0.62;6.00;4.87;;;24.60;39.80;;;;;;2249556;61;20385;-72
2021/07/01 00:15:23;0.00;0.00;0.62;0.00;0.00;0.62;7.20;4.70;;;24.60;39.80;;;;;;2249821;61;20366;-72
2021/07/01 00:17:50;0.00;0.00;0.62;0.00;0.00;0.62;6.17;5.20;;;24.60;39.70;;;;;;2250265;61;20376;-69
2021/07/01 00:20:19;0.00;0.00;0.62;0.00;0.00;0.62;6.57;5.27;;;24.50;39.60;;;;;;2248911;61;20357;-69
2021/07/01 00:22:46;0.00;0.00;0.62;0.00;0.00;0.62;5.63;4.53;;;24.50;39.60;;;;;;2250258;61;20431;-70
2021/07/01 00:25:14;0.00;0.00;0.62;0.00;0.00;0.62;4.43;3.90;;;24.50;39.70;;;;;;2249767;61;20361;-73
2021/07/01 00:27:41;0.00;0.00;0.62;0.00;0.00;0.62;5.47;4.67;;;24.50;39.70;;;;;;2248818;61;20477;-72
2021/07/01 00:30:11;0.00;0.00;0.62;0.00;0.00;0.62;4.90;4.20;;;24.40;39.70;;;;;;2250185;61;20711;-72
2021/07/01 00:32:38;0.00;0.00;0.62;0.00;0.00;0.62;4.80;3.77;;;24.40;39.80;;;;;;2250343;61;20420;-74
2021/07/01 00:35:06;0.00;0.00;0.62;0.00;0.00;0.62;4.90;4.40;;;24.40;39.90;;;;;;2249569;61;20361;-73
2021/07/01 00:37:36;0.00;0.00;0.62;0.00;0.00;0.62;5.27;4.53;;;24.40;40.00;;;;;;2250228;61;20422;-71
2021/07/01 00:40:06;0.00;0.00;0.62;0.00;0.00;0.62;5.03;4.37;;;24.30;39.90;;;;;;2250031;61;20358;-72
2021/07/01 00:42:35;0.00;0.00;0.62;0.00;0.00;0.62;4.70;4.30;;;24.30;39.90;;;;;;2249091;61;20393;-74
2021/07/01 00:45:02;0.00;0.00;0.62;0.00;0.00;0.62;6.20;5.23;;;24.30;40.00;;;;;;2249784;61;20370;-73
2021/07/01 00:47:29;0.00;0.00;0.62;0.00;0.00;0.62;5.87;5.27;;;24.20;40.00;;;;;;2249498;61;20434;-73
2021/07/01 00:49:59;0.00;0.00;0.62;0.00;0.00;0.62;4.93;4.43;;;24.20;40.00;;;;;;2249330;61;20685;-72
2021/07/01 00:52:25;0.00;0.00;0.62;0.00;0.00;0.62;5.07;4.57;;;24.20;40.00;;;;;;2249760;61;20434;-71
2021/07/01 00:54:52;0.00;0.00;0.62;0.00;0.00;0.62;5.53;3.70;;;24.10;40.10;;;;;;2246438;61;20366;-70
2021/07/01 00:57:19;0.00;0.00;0.62;0.00;0.00;0.62;5.20;4.10;;;24.10;40.30;;;;;;2249041;61;20607;-71
2021/07/01 00:59:47;0.00;0.00;0.62;0.00;0.00;0.62;4.50;4.10;;;24.00;40.40;;;;;;2249901;61;20698;-69
2021/07/01 01:02:14;0.00;0.00;0.62;0.00;0.00;0.62;4.90;4.40;;;24.00;40.40;;;;;;2250053;61;20358;-73
2021/07/01 01:04:41;0.00;0.00;0.62;0.00;0.00;0.62;5.50;4.20;;;24.00;40.40;;;;;;2249529;61;20369;-71
2021/07/01 01:07:07;0.00;0.00;0.62;0.00;0.00;0.62;4.53;4.13;;;24.00;40.40;;;;;;2249558;61;20441;-74
2021/07/01 01:09:34;0.00;0.00;0.62;0.00;0.00;0.62;5.33;4.83;;;24.00;40.40;;;;;;2250002;61;20357;-72
2021/07/01 01:12:01;0.00;0.00;0.62;0.00;0.00;0.62;4.53;4.03;;;23.90;40.50;;;;;;2249080;61;20398;-70
2021/07/01 01:14:28;0.00;0.00;0.62;0.00;0.00;0.62;4.00;3.60;;;23.90;40.60;;;;;;2249737;61;20506;-73
2021/07/01 01:16:59;0.00;0.00;0.62;0.00;0.00;0.62;5.30;4.80;;;23.90;40.60;;;;;;2249397;61;20353;-70
2021/07/01 01:19:26;0.00;0.00;0.62;0.00;0.00;0.62;5.47;3.77;;;23.80;40.60;;;;;;2245699;61;20408;-74
2021/07/01 01:21:54;0.00;0.00;0.62;0.00;0.00;0.62;4.30;3.90;;;23.80;40.70;;;;;;2249549;61;20361;-72
2021/07/01 01:24:21;0.00;0.00;0.62;0.00;0.00;0.62;7.30;3.93;;;23.80;40.80;;;;;;2249543;61;20385;-71
2021/07/01 01:26:47;0.00;0.00;0.62;0.00;0.00;0.62;4.90;4.20;;;23.80;40.90;;;;;;2248941;61;20369;-70
2021/07/01 01:29:14;0.00;0.00;0.62;0.00;0.00;0.62;5.70;4.43;;;23.80;40.90;;;;;;2246287;61;20365;-70
2021/07/01 01:31:43;0.00;0.00;0.62;0.00;0.00;0.62;6.90;4.73;;;23.80;40.90;;;;;;2246230;61;20370;-75
2021/07/01 01:34:09;0.00;0.00;0.62;0.00;0.00;0.62;6.97;4.70;;;23.80;40.90;;;;;;2249018;61;20384;-71
2021/07/01 01:36:36;0.00;0.00;0.62;0.00;0.00;0.62;6.03;5.10;;;23.80;40.80;;;;;;2249971;61;20373;-72
2021/07/01 01:39:05;0.00;0.00;0.62;0.00;0.00;0.62;5.13;4.47;;;23.80;40.80;;;;;;2249561;61;20392;-71
2021/07/01 01:41:35;0.00;0.00;0.62;0.00;0.00;0.62;7.17;4.87;;;23.70;40.60;;;;;;2248947;61;20378;-73
2021/07/01 01:44:02;0.00;0.00;0.62;0.00;0.00;0.62;6.30;4.80;;;23.70;40.40;;;;;;2249371;61;20382;-72
2021/07/01 01:46:35;0.00;0.00;0.62;0.00;0.00;0.62;8.60;4.70;;;23.70;40.30;;;;;;2249421;61;20358;-72
2021/07/01 01:52:41;0.00;0.00;0.62;0.00;0.00;0.62;7.60;5.27;;;23.60;40.00;;;;;;2401568;55;20444;-75
2021/07/01 01:55:12;0.00;0.00;0.62;0.00;0.00;0.62;6.57;4.70;;;23.60;40.10;;;;;;2248999;61;20419;-71
2021/07/01 01:57:42;0.00;0.00;0.62;0.00;0.00;0.62;5.03;4.33;;;23.50;40.00;;;;;;2249451;61;20390;-73
2021/07/01 02:00:36;0.00;0.00;0.62;0.00;0.00;0.62;6.10;5.00;;;23.50;40.20;;;;;;2249580;61;20355;-72
2021/07/01 02:03:03;0.00;0.00;0.62;0.00;0.00;0.62;5.90;4.47;;;23.40;40.30;;;;;;2249672;61;20382;-72
2021/07/01 02:05:42;0.00;0.00;0.62;0.00;0.00;0.62;5.67;4.80;;;23.40;40.40;;;;;;2249869;61;20357;-71
2021/07/01 02:08:10;0.00;0.00;0.62;0.00;0.00;0.62;10.70;6.03;;;23.40;40.40;;;;;;2245358;61;20346;-72
2021/07/01 02:10:39;0.00;0.00;0.62;0.00;0.00;0.62;8.10;4.90;;;23.30;40.40;;;;;;2246287;61;20471;-72
2021/07/01 02:13:11;0.00;0.00;0.62;0.00;0.00;0.62;7.20;4.63;;;23.30;40.40;;;;;;2249723;61;20385;-72
2021/07/01 02:15:47;0.00;0.00;0.62;0.00;0.00;0.62;5.73;4.90;;;23.30;40.60;;;;;;2245549;61;20376;-72
2021/07/01 02:18:15;0.00;0.00;0.62;0.00;0.00;0.62;5.60;5.00;;;23.20;40.60;;;;;;2246263;61;20436;-70
2021/07/01 02:20:42;0.00;0.00;0.62;0.00;0.00;0.62;6.73;5.40;;;23.20;40.70;;;;;;2246098;61;20385;-73
2021/07/01 02:23:08;0.00;0.00;0.62;0.00;0.00;0.62;9.40;4.90;;;23.20;40.80;;;;;;2249010;61;20449;-72
2021/07/01 02:25:44;0.00;0.00;0.62;0.00;0.00;0.62;6.70;5.37;;;23.20;40.80;;;;;;2249820;61;20437;-71
2021/07/01 02:28:14;0.00;0.00;0.62;0.00;0.00;0.62;5.80;4.60;;;23.20;40.90;;;;;;2249857;61;20365;-71
2021/07/01 02:30:49;0.00;0.00;0.62;0.00;0.00;0.62;5.60;5.00;;;23.20;41.10;;;;;;2245680;61;20587;-72
2021/07/01 02:33:16;0.00;0.00;0.62;0.00;0.00;0.62;5.80;5.03;;;23.20;41.20;;;;;;2249813;61;20386;-71
2021/07/01 02:35:43;0.00;0.00;0.62;0.00;0.00;0.62;5.83;4.43;;;23.20;41.20;;;;;;2246209;61;20382;-71
2021/07/01 02:38:39;0.00;0.00;0.62;0.00;0.00;0.62;7.20;5.20;;;23.10;40.90;;;;;;2249555;61;20386;-72
2021/07/01 02:41:14;0.00;0.00;0.62;0.00;0.00;0.62;8.80;5.57;;;23.10;41.10;;;;;;2246075;61;20733;-75
2021/07/01 02:43:43;0.00;0.00;0.62;0.00;0.00;0.62;7.90;5.80;;;23.10;41.10;;;;;;2249478;61;20385;-73
2021/07/01 02:46:29;0.00;0.00;0.62;0.00;0.00;0.62;6.97;4.73;;;23.10;41.10;;;;;;2249398;61;20362;-72
2021/07/01 02:48:57;0.00;0.00;0.62;0.00;0.00;0.62;7.70;5.77;;;23.10;41.00;;;;;;2249837;61;20351;-68
2021/07/01 02:51:24;0.00;0.00;0.62;0.00;0.00;0.62;6.83;5.60;;;23.10;41.10;;;;;;2245658;61;20371;-72
2021/07/01 02:53:54;0.00;0.00;0.62;0.00;0.00;0.62;9.80;6.13;;;23.00;41.00;;;;;;2245732;61;20390;-72
2021/07/01 02:56:26;0.00;0.00;0.62;0.00;0.00;0.62;8.37;5.80;;;23.00;41.00;;;;;;2249835;61;20370;-72
2021/07/01 02:58:53;0.00;0.00;0.62;0.00;0.00;0.62;9.87;6.23;;;23.00;41.20;;;;;;2249433;61;20397;-72
2021/07/01 03:01:55;0.00;0.00;0.62;0.00;0.00;0.62;8.40;6.00;;;22.90;41.10;;;;;;2236750;62;20368;-74
2021/07/01 03:04:33;0.00;0.00;0.62;0.00;0.00;0.62;8.97;7.50;;;22.90;41.10;;;;;;2248304;61;20705;-70
2021/07/01 03:07:00;0.00;0.00;0.62;0.00;0.00;0.62;9.30;7.17;;;22.90;41.10;;;;;;2249260;61;20359;-72
2021/07/01 03:09:26;0.00;0.00;0.62;0.00;0.00;0.62;7.73;6.93;;;22.80;41.00;;;;;;2249588;61;20454;-76
2021/07/01 03:11:55;0.00;0.00;0.62;0.00;0.00;0.62;7.13;6.40;;;22.80;41.10;;;;;;2245938;61;20401;-74
2021/07/01 03:14:22;0.00;0.00;0.62;0.00;0.00;0.62;10.17;6.37;;;22.80;41.20;;;;;;2249456;61;20441;-74
2021/07/01 03:16:48;0.00;0.00;0.62;0.00;0.00;0.62;10.73;7.20;;;22.80;41.20;;;;;;2249496;61;20372;-74
2021/07/01 03:19:17;0.00;0.00;0.62;0.00;0.00;0.62;8.00;7.20;;;22.70;41.30;;;;;;2249639;61;20382;-72
2021/07/01 03:22:10;0.00;0.00;0.62;0.00;0.00;0.62;12.10;7.80;;;22.70;41.20;;;;;;2243308;61;20393;-71
2021/07/01 03:24:39;0.00;0.00;0.62;0.00;0.00;0.62;8.77;7.87;;;22.70;41.20;;;;;;2246027;61;20441;-71
2021/07/01 03:27:08;0.00;0.00;0.62;0.00;0.00;0.62;14.00;8.83;;;22.60;41.20;;;;;;2245828;61;20406;-71
2021/07/01 03:29:35;0.00;0.00;0.62;0.00;0.00;0.62;11.57;8.00;;;22.60;41.30;;;;;;2245338;61;20362;-69
2021/07/01 03:32:05;0.00;0.00;0.62;0.00;0.00;0.62;8.87;7.80;;;22.60;41.20;;;;;;2245922;61;20362;-73
2021/07/01 03:34:33;0.00;0.00;0.62;0.00;0.00;0.62;9.73;8.73;;;22.60;41.20;;;;;;2249265;61;20802;-73
2021/07/01 03:37:02;0.00;0.00;0.62;0.00;0.00;0.62;12.17;8.70;;;22.50;41.10;;;;;;2245412;61;20694;-69
2021/07/01 03:40:09;0.00;0.00;0.62;0.00;0.00;0.62;9.73;8.77;;;22.50;41.20;;;;;;2249921;61;20769;-74
2021/07/01 03:42:38;0.00;0.00;0.62;0.00;0.00;0.62;9.97;7.37;;;22.50;41.20;;;;;;2246222;61;20737;-72
2021/07/01 03:45:06;0.00;0.00;0.62;0.00;0.00;0.62;9.10;8.13;;;22.50;41.30;;;;;;2246522;61;20385;-71
2021/07/01 03:47:33;0.00;0.00;0.62;0.00;0.00;0.62;9.20;8.30;;;22.40;41.10;;;;;;2246499;61;20643;-70
2021/07/01 03:50:00;0.00;0.00;0.62;0.00;0.00;0.62;12.83;8.00;;;22.40;41.20;;;;;;2246183;61;20358;-71
2021/07/01 03:53:02;0.00;0.00;0.62;0.00;0.00;0.62;9.30;7.93;;;22.40;41.30;;;;;;2249931;61;20396;-73
2021/07/01 03:55:29;0.00;0.00;0.62;0.00;0.00;0.62;9.90;8.30;;;22.40;41.30;;;;;;2246657;61;20702;-70
2021/07/01 03:57:58;0.00;0.00;0.62;0.00;0.00;0.62;9.80;7.03;;;22.40;41.30;;;;;;2246305;61;20843;-72
2021/07/01 04:00:25;0.00;0.00;0.62;0.00;0.00;0.62;8.43;7.20;;;22.30;41.20;;;;;;2246281;61;20437;-71
2021/07/01 04:02:57;0.00;0.00;0.62;0.00;0.00;0.62;8.63;7.77;;;22.30;41.30;;;;;;2246502;61;20387;-70
2021/07/01 04:05:29;0.00;0.00;0.62;0.00;0.00;0.62;8.80;6.70;;;22.30;41.40;;;;;;2246353;61;20359;-70
2021/07/01 04:07:57;0.00;0.00;0.62;0.00;0.00;0.62;9.35;8.10;;;22.30;41.40;;;;;;2245955;61;20569;-72
2021/07/01 04:10:43;0.00;0.00;0.62;0.00;0.00;0.62;9.73;7.17;;;22.20;41.40;;;;;;2250256;61;20268;-73
2021/07/01 04:13:14;0.00;0.00;0.62;0.00;0.00;0.62;9.40;7.20;;;22.20;41.40;;;;;;2246142;61;20453;-71
2021/07/01 04:16:01;0.00;0.00;0.62;0.00;0.00;0.62;7.63;6.53;;;22.20;42.10;;;;;;2249986;61;20576;-72
2021/07/01 04:18:46;0.00;0.00;0.62;0.00;0.00;0.62;7.80;5.80;;;22.20;41.50;;;;;;2250263;61;20808;-73
2021/07/01 04:21:31;0.00;0.00;0.62;0.00;0.00;0.62;9.57;6.13;;;22.20;41.60;;;;;;2249517;61;20425;-69
2021/07/01 04:24:15;0.00;0.00;0.62;0.00;0.00;0.62;7.70;5.80;;;22.10;41.60;;;;;;2250245;61;20355;-69
2021/07/01 04:26:56;0.00;0.00;0.62;0.00;0.00;0.62;7.83;6.60;;;22.10;41.80;;;;;;2246200;61;20361;-73
2021/07/01 04:29:26;0.00;0.00;0.62;0.00;0.00;0.62;8.37;6.63;;;22.00;41.70;;;;;;2249884;61;20695;-72
2021/07/01 04:31:55;0.00;0.00;0.62;0.00;0.00;0.62;7.00;5.80;;;22.00;41.80;;;;;;2243032;61;20683;-71
2021/07/01 04:34:22;0.00;0.00;0.62;0.00;0.00;0.62;9.13;6.10;;;22.00;41.90;;;;;;2246242;61;20354;-71
2021/07/01 04:36:49;0.00;0.00;0.62;0.00;0.00;0.62;10.67;6.30;;;22.00;42.60;;;;;;2246129;61;20354;-67
2021/07/01 04:39:16;0.00;0.00;0.62;0.00;0.00;0.62;9.40;6.10;;;21.90;41.90;;;;;;2246373;61;20397;-74
2021/07/01 04:41:53;0.00;0.00;0.62;0.00;0.00;0.62;5.97;5.47;;;21.90;42.10;;;;;;2246059;61;20485;-69
2021/07/01 04:44:20;0.00;0.00;0.62;0.00;0.00;0.62;6.30;4.80;;;21.90;42.20;;;;;;2246023;61;20365;-68
2021/07/01 04:46:48;0.00;0.00;0.62;0.00;0.00;0.62;6.83;4.90;;;21.90;42.20;;;;;;2246366;61;20362;-72
2021/07/01 04:49:15;0.00;0.00;0.62;0.00;0.00;0.62;7.20;5.57;;;21.90;42.30;;;;;;2246183;61;20363;-73
2021/07/01 04:51:59;0.00;0.00;0.62;0.00;0.00;0.62;5.93;5.00;;;22.00;42.40;;;;;;2245684;61;20366;-69
2021/07/01 04:54:44;0.00;0.00;0.62;0.00;0.00;0.62;8.83;5.23;;;22.00;42.40;;;;;;2250142;61;20678;-70
2021/07/01 04:57:49;0.00;0.00;0.62;0.00;0.00;0.62;7.43;5.17;;;22.00;42.40;;;;;;2233131;62;20625;-73
2021/07/01 05:00:17;0.00;0.00;0.62;0.00;0.00;0.62;6.47;4.93;;;22.10;42.40;;;;;;2233137;62;20369;-74
2021/07/01 05:03:05;0.00;0.00;0.62;0.00;0.00;0.62;8.40;5.30;;;22.10;43.10;;;;;;2244557;61;20845;-71
2021/07/01 05:05:36;0.00;0.00;0.62;0.00;0.00;0.62;6.50;4.90;;;22.10;42.40;;;;;;2249779;61;20570;-70
2021/07/01 05:08:03;0.00;0.00;0.62;0.00;0.00;0.62;8.00;4.53;;;22.20;42.50;;;;;;2242694;61;20435;-71
2021/07/01 05:10:30;0.00;0.00;0.62;0.00;0.00;0.62;6.27;4.87;;;22.20;42.30;;;;;;2246493;61;20380;-72
2021/07/01 05:13:03;0.00;0.00;0.62;0.00;0.00;0.62;6.50;5.30;;;22.20;42.30;;;;;;2245869;61;20385;-65
2021/07/01 05:15:30;0.00;0.00;0.62;0.00;0.00;0.62;7.97;5.40;;;22.30;42.30;;;;;;2246170;61;20366;-70
2021/07/01 05:18:05;0.00;0.00;0.62;0.00;0.00;0.62;6.67;4.87;;;22.30;42.20;;;;;;2246334;61;20428;-71
2021/07/01 05:20:32;0.00;0.00;0.62;0.00;0.00;0.62;8.70;6.20;;;22.40;42.30;;;;;;2249209;61;20366;-72
2021/07/01 05:23:19;0.00;0.00;0.62;0.00;0.00;0.62;7.23;4.93;;;22.40;42.30;;;;;;2249953;61;20469;-70
2021/07/01 05:26:21;0.00;0.00;0.62;0.00;0.00;0.62;5.70;4.90;;;22.40;42.10;;;;;;2232997;62;20361;-72
2021/07/01 05:29:06;0.00;0.00;0.62;0.00;0.00;0.62;5.80;4.60;;;22.50;42.10;;;;;;2248253;61;20366;-71
2021/07/01 05:31:59;0.00;0.00;0.62;0.00;0.00;0.62;9.50;5.13;;;22.50;42.00;;;;;;2250023;61;20362;-69
2021/07/01 05:34:45;0.00;0.00;0.62;0.00;0.00;0.62;6.33;5.00;;;22.50;41.90;;;;;;2249696;61;20397;-70
2021/07/01 05:37:12;0.00;0.00;0.62;0.00;0.00;0.62;6.40;5.17;;;22.60;42.00;;;;;;2242834;61;20362;-71
2021/07/01 05:39:45;0.00;0.00;0.62;0.00;0.00;0.62;5.57;4.73;;;22.60;42.00;;;;;;2246324;61;20449;-70
2021/07/01 05:42:12;0.00;0.00;0.62;0.00;0.00;0.62;4.97;4.00;;;22.60;41.90;;;;;;2249433;61;20433;-71
2021/07/01 05:44:38;0.00;0.00;0.62;0.00;0.00;0.62;5.93;4.77;;;22.60;41.80;;;;;;2245991;61;20362;-71
2021/07/01 05:47:05;0.00;0.00;0.62;0.00;0.00;0.62;6.83;4.50;;;22.70;41.80;;;;;;2246183;61;20362;-69
2021/07/01 05:49:32;0.00;0.00;0.62;0.00;0.00;0.62;8.37;4.97;;;22.70;41.70;;;;;;2249571;61;20358;-69
2021/07/01 05:52:03;0.00;0.00;0.62;0.00;0.00;0.62;8.90;5.37;;;22.70;41.70;;;;;;2249596;61;20442;-71
2021/07/01 05:54:35;0.00;0.00;0.62;0.00;0.00;0.62;7.27;4.70;;;22.80;41.70;;;;;;2249970;61;20369;-68
2021/07/01 05:57:03;0.00;0.00;0.62;0.00;0.00;0.62;5.90;4.73;;;22.80;41.60;;;;;;2249561;61;20360;-69
2021/07/01 05:59:30;0.00;0.00;0.62;0.00;0.00;0.62;5.07;4.40;;;22.80;41.50;;;;;;2249715;61;20437;-71
2021/07/01 06:01:57;0.00;0.00;0.62;0.00;0.00;0.62;4.83;4.27;;;22.90;41.60;;;;;;2246082;61;20355;-71
2021/07/01 06:04:24;0.00;0.00;0.62;0.00;0.00;0.62;4.80;4.30;;;22.80;41.50;;;;;;2249430;61;20365;-69
2021/07/01 06:07:24;0.00;0.00;0.62;0.00;0.00;0.62;5.03;4.40;;;22.90;41.50;;;;;;2244071;61;20405;-71
2021/07/01 06:09:53;0.00;0.00;0.62;0.00;0.00;0.62;9.83;4.77;;;22.90;41.40;;;;;;2249957;61;20370;-72
2021/07/01 06:12:22;0.00;0.00;0.62;0.00;0.00;0.62;4.80;4.30;;;22.90;41.40;;;;;;2245598;61;20393;-70
2021/07/01 06:14:55;0.00;0.00;0.62;0.00;0.00;0.62;5.37;4.40;;;23.00;41.40;;;;;;2250027;61;20694;-71
2021/07/01 06:17:22;0.00;0.00;0.62;0.00;0.00;0.62;6.60;4.83;;;23.00;41.40;;;;;;2249840;61;20381;-71
2021/07/01 06:19:49;0.00;0.00;0.62;0.00;0.00;0.62;5.20;4.37;;;23.00;41.30;;;;;;2249222;61;20400;-72
2021/07/01 06:22:18;0.00;0.00;0.62;0.00;0.00;0.62;5.10;4.60;;;23.00;41.30;;;;;;2246021;61;20576;-69
2021/07/01 06:24:49;0.00;0.00;0.62;0.00;0.00;0.62;6.67;4.30;;;23.00;41.30;;;;;;2249794;61;20416;-70
2021/07/01 06:27:21;0.00;0.00;0.62;0.00;0.00;0.62;6.10;4.33;;;23.10;41.30;;;;;;2245530;61;20358;-69
2021/07/01 06:29:51;0.00;0.00;0.62;0.00;0.00;0.62;6.50;4.63;;;23.10;41.30;;;;;;2246267;61;20358;-70
2021/07/01 06:32:17;0.00;0.00;0.62;0.00;0.00;0.62;4.77;4.27;;;23.10;41.30;;;;;;2249623;61;20385;-72
2021/07/01 06:34:44;0.00;0.00;0.62;0.00;0.00;0.62;5.57;4.50;;;23.10;41.20;;;;;;2249317;61;20386;-71
2021/07/01 06:37:12;0.00;0.00;0.62;0.00;0.00;0.62;4.30;3.80;;;23.10;41.20;;;;;;2249928;61;20354;-69
2021/07/01 06:40:01;0.00;0.00;0.62;0.00;0.00;0.62;5.07;4.53;;;23.20;41.20;;;;;;2249734;61;20702;-69
2021/07/01 06:42:53;0.00;0.00;0.62;0.00;0.00;0.62;5.37;3.63;;;23.20;41.20;;;;;;2249496;61;20383;-70
2021/07/01 06:45:38;0.00;0.00;0.62;0.00;0.00;0.62;4.73;4.20;;;23.20;41.20;;;;;;2249829;61;20362;-70
2021/07/01 06:48:24;0.00;0.00;0.62;0.00;0.00;0.62;3.70;3.30;;;23.20;41.10;;;;;;2249390;61;20378;-71
2021/07/01 06:51:10;0.00;0.00;0.62;0.00;0.00;0.62;4.90;4.50;;;23.30;41.20;;;;;;2249489;61;20362;-69
2021/07/01 06:53:55;0.00;0.00;0.62;0.00;0.00;0.62;4.50;3.57;;;23.30;41.20;;;;;;2249671;61;20397;-69
2021/07/01 06:56:43;0.00;0.00;0.62;0.00;0.00;0.62;4.87;4.40;;;23.30;41.10;;;;;;2249504;61;20362;-69
2021/07/01 06:59:12;0.00;0.00;0.62;0.00;0.00;0.62;3.80;3.30;;;23.30;41.10;;;;;;2249699;61;20382;-73
2021/07/01 07:01:40;0.00;0.00;0.62;0.00;0.00;0.62;3.90;3.57;;;23.30;41.10;;;;;;2249622;61;20359;-70
2021/07/01 07:04:07;0.00;0.00;0.62;0.00;0.00;0.62;4.43;3.60;;;23.30;41.10;;;;;;2249375;61;20461;-73
2021/07/01 07:06:36;0.00;0.00;0.62;0.00;0.00;0.62;5.83;4.13;;;23.30;41.00;;;;;;2249607;61;20369;-71
2021/07/01 07:09:03;0.00;0.00;0.62;0.00;0.00;0.62;3.77;3.43;;;23.40;41.10;;;;;;2249687;61;20393;-68
2021/07/01 07:11:33;0.00;0.00;0.62;0.00;0.00;0.62;3.67;3.37;;;23.40;41.10;;;;;;2249270;61;20357;-69
2021/07/01 07:14:01;0.00;0.00;0.62;0.00;0.00;0.62;4.33;3.60;;;23.40;41.00;;;;;;2249622;61;20378;-68
2021/07/01 07:16:29;0.00;0.00;0.62;0.00;0.00;0.62;5.33;3.80;;;23.40;41.10;;;;;;2246731;61;20438;-70
2021/07/01 07:18:58;0.00;0.00;0.62;0.00;0.00;0.62;5.07;3.30;;;23.40;41.00;;;;;;2249958;61;20385;-71
2021/07/01 07:21:26;0.00;0.00;0.62;0.00;0.00;0.62;4.10;3.03;;;23.40;41.00;;;;;;2250358;61;20694;-71
2021/07/01 07:23:54;0.00;0.00;0.62;0.00;0.00;0.62;3.77;3.40;;;23.40;41.00;;;;;;2250468;61;20392;-71
2021/07/01 07:26:24;0.00;0.00;0.62;0.00;0.00;0.62;4.03;3.40;;;23.40;41.00;;;;;;2249877;61;20365;-70
2021/07/01 07:28:53;0.00;0.00;0.62;0.00;0.00;0.62;4.70;3.10;;;23.40;41.00;;;;;;2250242;61;20361;-71
2021/07/01 07:31:25;0.00;0.00;0.62;0.00;0.00;0.62;4.10;2.90;;;23.40;41.00;;;;;;2249884;61;20376;-69
2021/07/01 07:33:54;0.00;0.00;0.62;0.00;0.00;0.62;5.30;3.17;;;23.40;41.00;;;;;;2249265;61;20384;-69
2021/07/01 07:36:23;0.00;0.00;0.62;0.00;0.00;0.62;3.70;2.73;;;23.40;40.90;;;;;;2250369;61;20738;-71
2021/07/01 07:38:50;0.00;0.00;0.62;0.00;0.00;0.62;3.60;2.80;;;23.50;41.00;;;;;;2250439;61;20389;-72
2021/07/01 07:41:18;0.00;0.00;0.62;0.00;0.00;0.62;3.50;2.87;;;23.50;41.00;;;;;;2249676;61;20677;-71
2021/07/01 07:43:45;0.00;0.00;0.62;0.00;0.00;0.62;3.37;3.07;;;23.50;41.00;;;;;;2250298;61;20378;-69
2021/07/01 07:46:12;0.00;0.00;0.62;0.00;0.00;0.62;3.70;3.07;;;23.50;41.00;;;;;;2246710;61;20427;-71
2021/07/01 07:48:40;0.00;0.00;0.62;0.00;0.00;0.62;3.30;2.73;;;23.50;40.90;;;;;;2249729;61;20350;-69
2021/07/01 07:51:10;0.00;0.00;0.62;0.00;0.00;0.62;2.87;2.50;;;23.60;41.00;;;;;;2250268;61;20433;-69
2021/07/01 07:53:40;0.00;0.00;0.62;0.00;0.00;0.62;4.40;3.20;;;23.60;41.00;;;;;;2250400;61;20389;-70
2021/07/01 07:56:09;0.00;0.00;0.62;0.00;0.00;0.62;3.37;3.07;;;23.60;40.90;;;;;;2249785;61;20369;-70
2021/07/01 07:58:40;0.00;0.00;0.62;0.00;0.00;0.62;3.00;2.70;;;23.60;40.90;;;;;;2250318;61;20397;-69
2021/07/01 08:01:09;0.00;0.00;0.62;0.00;0.00;0.62;3.23;2.93;;;23.60;40.90;;;;;;2250303;61;20362;-69
2021/07/01 08:03:38;0.00;0.00;0.62;0.00;0.00;0.62;3.90;2.47;;;23.60;40.90;;;;;;2249758;61;20389;-69
2021/07/01 08:06:07;0.00;0.00;0.62;0.00;0.00;0.62;4.50;2.47;;;23.70;41.00;;;;;;2250366;61;20365;-71
2021/07/01 08:08:37;0.00;0.00;0.62;0.00;0.00;0.62;2.63;2.30;;;23.70;40.90;;;;;;2250141;61;20355;-70
2021/07/01 08:11:07;0.00;0.00;0.62;0.00;0.00;0.62;3.30;2.67;;;23.70;40.90;;;;;;2245741;61;20358;-70
2021/07/01 08:13:36;0.00;0.00;0.62;0.00;0.00;0.62;2.40;2.03;;;23.70;40.90;;;;;;2250327;61;20454;-70
2021/07/01 08:16:04;0.00;0.00;0.62;0.00;0.00;0.62;2.77;2.57;;;23.70;40.80;;;;;;2250333;61;20411;-69
2021/07/01 08:18:36;0.00;0.00;0.62;0.00;0.00;0.62;2.70;2.50;;;23.70;40.80;;;;;;2249550;61;20416;-69
2021/07/01 08:21:02;0.00;0.00;0.62;0.00;0.00;0.62;4.73;2.97;;;23.70;40.80;;;;;;2250178;61;20401;-70
2021/07/01 08:23:33;0.00;0.00;0.62;0.00;0.00;0.62;3.53;2.70;;;23.80;40.80;;;;;;2250274;61;20393;-69
2021/07/01 08:26:01;0.00;0.00;0.62;0.00;0.00;0.62;2.30;2.10;;;23.80;40.90;;;;;;2249564;61;20355;-69
2021/07/01 08:28:29;0.00;0.00;0.62;0.00;0.00;0.62;3.40;2.67;;;23.80;40.80;;;;;;2250254;61;20357;-68
2021/07/01 08:30:59;0.00;0.00;0.62;0.00;0.00;0.62;2.80;2.60;;;23.80;40.80;;;;;;2248703;61;20354;-72
2021/07/01 08:33:33;0.00;0.00;0.62;0.00;0.00;0.62;3.60;2.93;;;23.80;40.80;;;;;;2248504;61;20382;-70
2021/07/01 08:36:02;0.00;0.00;0.62;0.00;0.00;0.62;2.80;2.43;;;23.80;40.80;;;;;;2250031;61;20425;-72
2021/07/01 08:38:34;0.00;0.00;0.62;0.00;0.00;0.62;3.20;2.77;;;23.80;41.40;;;;;;2246114;61;20433;-70
2021/07/01 08:41:09;0.00;0.00;0.62;0.00;0.00;0.62;3.43;2.50;;;23.80;40.80;;;;;;2248978;61;20359;-71
2021/07/01 08:43:48;0.00;0.00;0.62;0.00;0.00;0.62;2.70;2.50;;;23.90;40.80;;;;;;2249661;61;20385;-70
2021/07/01 08:46:20;0.00;0.00;0.62;0.00;0.00;0.62;3.20;2.70;;;23.90;40.80;;;;;;2249716;61;20366;-69
2021/07/01 08:49:01;0.00;0.00;0.62;0.00;0.00;0.62;3.23;2.27;;;23.90;40.80;;;;;;2249839;61;20356;-70
2021/07/01 08:51:31;0.00;0.00;0.62;0.00;0.00;0.62;2.73;2.47;;;23.90;40.80;;;;;;2250174;61;20360;-69
2021/07/01 08:54:25;0.00;0.00;0.62;0.00;0.00;0.62;4.27;2.63;;;23.90;41.40;;;;;;2249725;61;20420;-71
2021/07/01 08:56:54;0.00;0.00;0.62;0.00;0.00;0.62;2.40;2.10;;;23.90;40.70;;;;;;2249484;61;20456;-70
2021/07/01 08:59:24;0.00;0.00;0.62;0.00;0.00;0.62;2.57;2.27;;;23.90;40.70;;;;;;2250112;61;20390;-71
2021/07/01 09:01:59;0.00;0.00;0.62;0.00;0.00;0.62;3.33;2.10;;;23.90;40.70;;;;;;2249676;61;20353;-70
2021/07/01 09:04:29;0.00;0.00;0.62;0.00;0.00;0.62;2.67;2.47;;;23.90;40.70;;;;;;2249947;61;20361;-70
2021/07/01 09:07:02;0.00;0.00;0.62;0.00;0.00;0.62;3.40;2.40;;;23.90;40.70;;;;;;2249855;61;20698;-69
2021/07/01 09:09:33;0.00;0.00;0.62;0.00;0.00;0.62;3.87;2.87;;;23.90;40.70;;;;;;2249799;61;20484;-69
2021/07/01 09:12:07;0.00;0.00;0.62;0.00;0.00;0.62;3.20;2.60;;;23.90;40.80;;;;;;2249788;61;20362;-69
2021/07/01 09:14:36;0.00;0.00;0.62;0.00;0.00;0.62;2.97;2.20;;;23.90;40.70;;;;;;2250120;61;20366;-69
2021/07/01 09:17:10;0.00;0.00;0.62;0.00;0.00;0.62;2.20;2.00;;;23.90;40.70;;;;;;2246125;61;20357;-69
2021/07/01 09:19:38;0.00;0.00;0.62;0.00;0.00;0.62;2.57;2.00;;;23.90;40.80;;;;;;2249782;61;20436;-67
2021/07/01 09:22:06;0.00;0.00;0.62;0.00;0.00;0.62;4.90;2.40;;;23.90;40.80;;;;;;2250094;61;20472;-72
2021/07/01 09:24:36;0.00;0.00;0.62;0.00;0.00;0.62;2.97;2.30;;;23.90;40.80;;;;;;2246152;61;20361;-72
2021/07/01 09:27:11;0.00;0.00;0.62;0.00;0.00;0.62;2.70;2.13;;;23.90;40.70;;;;;;2249666;61;20362;-68
2021/07/01 09:29:41;0.00;0.00;0.62;0.00;0.00;0.62;2.37;2.17;;;23.90;40.80;;;;;;2250062;61;20399;-70
2021/07/01 09:32:09;0.00;0.00;0.62;0.00;0.00;0.62;2.80;2.00;;;24.00;40.80;;;;;;2249522;61;20374;-70
2021/07/01 09:34:36;0.00;0.00;0.62;0.00;0.00;0.62;4.13;2.00;;;23.90;40.80;;;;;;2246308;61;20393;-69
2021/07/01 09:37:03;0.00;0.00;0.62;0.00;0.00;0.62;2.40;1.90;;;23.90;40.80;;;;;;2249944;61;20365;-69
2021/07/01 09:39:32;0.00;0.00;0.62;0.00;0.00;0.62;2.30;2.00;;;23.90;40.80;;;;;;2249508;61;20385;-69
2021/07/01 09:42:02;0.00;0.00;0.62;0.00;0.00;0.62;2.30;2.00;;;24.00;40.90;;;;;;2249834;61;20594;-67
2021/07/01 09:44:31;0.00;0.00;0.62;0.00;0.00;0.62;2.17;1.80;;;24.00;40.90;;;;;;2250069;61;20646;-72
2021/07/01 09:47:00;0.00;0.00;0.62;0.00;0.00;0.62;2.67;1.60;;;24.00;40.80;;;;;;2249394;61;20357;-70
2021/07/01 09:49:31;0.00;0.00;0.62;0.00;0.00;0.62;2.53;2.03;;;24.00;40.80;;;;;;2249919;61;20354;-69
2021/07/01 09:52:02;0.00;0.00;0.62;0.00;0.00;0.62;1.63;1.47;;;24.00;40.80;;;;;;2246268;61;20350;-70
2021/07/01 09:54:31;0.00;0.00;0.62;0.00;0.00;0.62;2.03;1.70;;;24.00;40.80;;;;;;2249382;61;20606;-68
2021/07/01 09:57:06;0.00;0.00;0.62;0.00;0.00;0.62;2.77;1.80;;;24.00;40.90;;;;;;2246210;61;20353;-69
2021/07/01 09:59:43;0.00;0.00;0.62;0.00;0.00;0.62;2.00;1.63;;;24.00;40.90;;;;;;2249985;61;20469;-68
2021/07/01 10:02:15;0.00;0.00;0.62;0.00;0.00;0.62;1.60;1.17;;;24.00;40.90;;;;;;2249237;61;20445;-69